Time;durP1;ratioP1;P1;durP2;ratioP2;P2;SDS_P1;SDS_P2;PMS_P1;PMS_P2;Temp;Humidity;BMP_temperature;BMP_pressure;BME280_temperature;BME280_humidity;BME280_pressure;Samples;Min_cycle;Max_cycle;Signal;HPM_P1;HPM_P2
2021/10/17 00:02:45;;;;;;;5.13;1.65;;;;;;;7.59;100.00;101747.75;6272110;28;20059;-75
2021/10/17 00:05:46;;;;;;;5.00;1.60;;;;;;;7.61;100.00;101750.34;6271925;28;20067;-75
2021/10/17 00:08:49;;;;;;;3.38;1.65;;;;;;;7.62;100.00;101744.19;6272020;28;20045;-75
2021/10/17 00:11:50;;;;;;;4.43;2.05;;;;;;;7.64;100.00;101739.81;6272119;28;20057;-75
2021/10/17 00:14:52;;;;;;;2.38;1.63;;;;;;;7.67;100.00;101746.69;6271846;28;20052;-75
2021/10/17 00:17:54;;;;;;;3.38;1.73;;;;;;;7.72;100.00;101736.97;6288261;28;20049;-75
2021/10/17 00:20:57;;;;;;;2.97;1.45;;;;;;;7.69;100.00;101734.44;6296715;28;20060;-74
2021/10/17 00:24:00;;;;;;;1.92;1.48;;;;;;;7.72;100.00;101734.34;6296491;28;20150;-75
2021/10/17 00:27:01;;;;;;;5.22;1.80;;;;;;;7.71;100.00;101732.63;6296349;28;20507;-75
2021/10/17 00:30:04;;;;;;;3.80;1.73;;;;;;;7.67;100.00;101724.00;6296483;28;20499;-75
2021/10/17 00:33:05;;;;;;;4.35;1.45;;;;;;;7.70;100.00;101729.16;6294695;28;20060;-75
2021/10/17 00:36:06;;;;;;;4.00;1.25;;;;;;;7.70;100.00;101728.31;6296058;28;20419;-74
2021/10/17 00:39:09;;;;;;;4.03;1.92;;;;;;;7.70;100.00;101730.94;6296150;28;20044;-76
2021/10/17 00:42:11;;;;;;;3.60;1.83;;;;;;;7.69;100.00;101731.84;6296307;28;20070;-74
2021/10/17 00:45:14;;;;;;;6.63;1.80;;;;;;;7.70;100.00;101730.94;6296106;28;20048;-75
2021/10/17 00:48:16;;;;;;;3.25;1.77;;;;;;;7.70;100.00;101730.94;6294438;28;20415;-75
2021/10/17 00:51:17;;;;;;;3.63;1.40;;;;;;;7.70;100.00;101733.53;6296008;28;20052;-75
2021/10/17 00:54:20;;;;;;;3.17;1.30;;;;;;;7.72;100.00;101729.13;6295986;28;20052;-75
2021/10/17 00:57:22;;;;;;;2.95;1.83;;;;;;;7.71;100.00;101730.03;6296140;28;20045;-75
2021/10/17 01:00:23;;;;;;;5.45;1.90;;;;;;;7.70;100.00;101723.09;6296032;28;20060;-75
2021/10/17 01:03:24;;;;;;;1.88;1.02;;;;;;;7.72;100.00;101729.13;6298498;28;20074;-75
2021/10/17 01:06:26;;;;;;;7.82;1.42;;;;;;;7.70;100.00;101720.47;6300842;28;20051;-75
2021/10/17 01:09:28;;;;;;;1.80;1.20;;;;;;;7.71;100.00;101725.66;6300989;28;20075;-74
2021/10/17 01:12:30;;;;;;;4.15;1.30;;;;;;;7.72;100.00;101723.88;6300959;28;20052;-75
2021/10/17 01:15:31;;;;;;;3.58;1.77;;;;;;;7.72;100.00;101722.16;6300780;28;20045;-74
2021/10/17 01:18:33;;;;;;;2.63;1.40;;;;;;;7.73;100.00;101713.41;6286717;28;20416;-75
2021/10/17 01:21:38;;;;;;;2.78;1.42;;;;;;;7.73;100.00;101715.16;6275962;28;20060;-75
2021/10/17 01:24:39;;;;;;;4.75;1.35;;;;;;;7.73;100.00;101705.56;6275738;28;20045;-75
2021/10/17 01:27:41;;;;;;;4.63;1.35;;;;;;;7.73;100.00;101715.16;6275898;28;20071;-76
2021/10/17 01:30:42;;;;;;;3.22;1.73;;;;;;;7.73;100.00;101704.69;6275595;28;20049;-75
2021/10/17 01:33:44;;;;;;;1.90;1.27;;;;;;;7.78;100.00;101703.66;6275358;28;20503;-74
2021/10/17 01:36:47;;;;;;;5.15;1.40;;;;;;;7.77;100.00;101712.44;6275393;28;20056;-75
2021/10/17 01:39:48;;;;;;;7.55;1.85;;;;;;;7.80;100.00;101704.47;6275381;28;20064;-75
2021/10/17 01:42:50;;;;;;;2.83;1.30;;;;;;;7.78;100.00;101697.59;6275648;28;20045;-75
2021/10/17 01:45:51;;;;;;;3.65;1.73;;;;;;;7.79;100.00;101694.91;6275325;28;20053;-75
2021/10/17 01:48:52;;;;;;;4.80;2.30;;;;;;;7.79;100.00;101688.81;6286827;28;20052;-75
2021/10/17 01:51:55;;;;;;;2.03;1.20;;;;;;;7.79;100.00;101700.16;6299750;28;20051;-75
2021/10/17 01:54:57;;;;;;;4.43;1.55;;;;;;;7.81;100.00;101697.47;6299842;28;20052;-75
2021/10/17 01:57:58;;;;;;;5.65;1.63;;;;;;;7.82;100.00;101694.00;6299800;28;20487;-75
2021/10/17 02:01:00;;;;;;;4.55;1.73;;;;;;;7.84;100.00;101682.56;6300061;28;20098;-75
2021/10/17 02:04:03;;;;;;;2.85;1.73;;;;;;;7.86;100.00;101687.78;6298962;28;20407;-75
2021/10/17 02:07:05;;;;;;;1.88;1.08;;;;;;;7.84;100.00;101679.94;6299732;28;20509;-75
2021/10/17 02:10:08;;;;;;;2.40;1.30;;;;;;;7.83;100.00;101675.63;6299559;28;20048;-75
2021/10/17 02:13:09;;;;;;;1.90;1.27;;;;;;;7.84;100.00;101669.47;6299520;28;20056;-75
2021/10/17 02:16:11;;;;;;;3.20;1.60;;;;;;;7.87;100.00;101674.63;6298612;28;20068;-75
2021/10/17 02:19:12;;;;;;;3.33;1.63;;;;;;;7.89;99.21;101669.34;6276812;28;20045;-74
2021/10/17 02:22:15;;;;;;;6.68;2.15;;;;;;;7.92;98.38;101671.91;6274582;28;20056;-75
2021/10/17 02:25:16;;;;;;;3.22;2.05;;;;;;;7.92;98.65;101678.91;6274263;28;20503;-75
2021/10/17 02:28:18;;;;;;;2.42;1.27;;;;;;;7.90;98.25;101668.44;6274417;28;20049;-75
2021/10/17 02:31:19;;;;;;;2.97;1.40;;;;;;;7.92;99.12;101682.38;6274069;28;20049;-75
2021/10/17 02:34:20;;;;;;;8.32;2.10;;;;;;;7.93;98.65;101675.38;6274229;28;20065;-75
2021/10/17 02:37:23;;;;;;;3.55;1.55;;;;;;;7.93;99.03;101673.59;6274054;28;20045;-75
2021/10/17 02:40:24;;;;;;;4.72;1.48;;;;;;;7.92;99.47;101674.50;6273975;28;20056;-75
2021/10/17 02:43:26;;;;;;;3.13;2.08;;;;;;;7.93;100.00;101675.38;6273873;28;20051;-75
2021/10/17 02:46:27;;;;;;;3.00;1.40;;;;;;;7.94;99.48;101669.22;6274145;28;20427;-74
2021/10/17 02:49:28;;;;;;;1.83;1.30;;;;;;;7.94;99.82;101667.47;6287371;28;20045;-75
2021/10/17 02:52:31;;;;;;;10.25;1.85;;;;;;;7.94;98.90;101664.00;6273660;28;20415;-75
2021/10/17 02:55:32;;;;;;;2.53;1.30;;;;;;;7.91;99.74;101659.72;6274016;28;20049;-74
2021/10/17 02:58:34;;;;;;;4.72;1.75;;;;;;;7.91;100.00;101653.63;6273617;28;20045;-75
2021/10/17 03:01:35;;;;;;;8.40;2.58;;;;;;;7.94;100.00;101664.00;6273337;28;20052;-75
2021/10/17 03:04:37;;;;;;;2.90;1.40;;;;;;;7.95;100.00;101669.22;6273160;28;20056;-75
2021/10/17 03:07:39;;;;;;;4.68;1.92;;;;;;;7.96;100.00;101657.81;6273378;28;20377;-75
2021/10/17 03:10:41;;;;;;;2.65;1.35;;;;;;;7.97;100.00;101653.44;6273187;28;20527;-75
2021/10/17 03:13:42;;;;;;;2.70;1.50;;;;;;;7.96;100.00;101652.59;6273158;28;20049;-75
2021/10/17 03:16:45;;;;;;;6.68;1.80;;;;;;;7.94;100.00;101656.13;6273309;28;20496;-75
2021/10/17 03:19:49;;;;;;;1.75;1.35;;;;;;;7.95;100.00;101656.13;6273191;28;20053;-75
2021/10/17 03:22:52;;;;;;;4.63;1.33;;;;;;;7.89;100.00;101651.88;6273189;28;20049;-75
2021/10/17 03:25:53;;;;;;;3.45;1.27;;;;;;;7.91;100.00;101659.72;6283670;28;20079;-75
2021/10/17 03:28:55;;;;;;;2.08;1.33;;;;;;;7.94;99.77;101659.63;6297815;28;20045;-75
2021/10/17 03:31:56;;;;;;;4.55;1.73;;;;;;;7.94;100.00;101656.13;6296571;28;20488;-75
2021/10/17 03:34:57;;;;;;;2.78;1.42;;;;;;;7.94;100.00;101657.00;6297695;28;20135;-75
2021/10/17 03:38:00;;;;;;;3.03;1.60;;;;;;;7.94;100.00;101650.91;6297242;28;20048;-75
2021/10/17 03:41:01;;;;;;;2.88;1.30;;;;;;;7.96;100.00;101651.75;6297558;28;20052;-75
2021/10/17 03:44:04;;;;;;;3.22;1.05;;;;;;;7.95;100.00;101650.88;6297380;28;20055;-75
2021/10/17 03:47:05;;;;;;;4.70;1.35;;;;;;;7.95;100.00;101650.00;6297168;28;20056;-75
2021/10/17 03:50:07;;;;;;;4.20;1.85;;;;;;;7.95;100.00;101658.75;6297002;28;20047;-75
2021/10/17 03:53:10;;;;;;;3.55;1.55;;;;;;;7.95;100.00;101650.88;6278430;28;20044;-74
2021/10/17 03:56:11;;;;;;;2.72;1.45;;;;;;;7.94;100.00;101656.13;6272183;28;20408;-75
2021/10/17 03:59:15;;;;;;;3.40;1.35;;;;;;;7.93;100.00;101651.81;6272244;28;20052;-75
2021/10/17 04:02:16;;;;;;;2.05;1.48;;;;;;;7.93;100.00;101652.66;6272258;28;20187;-75
2021/10/17 04:05:18;;;;;;;4.72;1.67;;;;;;;7.94;100.00;101659.63;6271884;28;20057;-75
2021/10/17 04:08:20;;;;;;;5.40;1.63;;;;;;;7.92;100.00;101652.72;6272307;28;20056;-75
2021/10/17 04:11:22;;;;;;;2.90;1.50;;;;;;;7.91;100.00;101658.88;6271643;28;20428;-75
2021/10/17 04:14:23;;;;;;;5.30;1.73;;;;;;;7.92;100.00;101663.19;6271888;28;20045;-75
2021/10/17 04:17:24;;;;;;;3.65;1.90;;;;;;;7.94;100.00;101661.38;6270838;28;20059;-75
2021/10/17 04:20:26;;;;;;;3.13;1.33;;;;;;;7.95;100.00;101670.94;6271707;28;20045;-75
2021/10/17 04:23:29;;;;;;;4.18;1.40;;;;;;;7.96;100.00;101659.59;6271472;28;20060;-75
2021/10/17 04:26:30;;;;;;;6.38;1.60;;;;;;;7.97;100.00;101664.78;6271472;28;20393;-75
2021/10/17 04:29:31;;;;;;;4.05;1.67;;;;;;;8.00;100.00;101656.00;6271642;28;20079;-75
2021/10/17 04:32:33;;;;;;;2.78;1.17;;;;;;;7.99;100.00;101662.97;6271436;28;20048;-75
2021/10/17 04:35:38;;;;;;;3.75;1.60;;;;;;;7.98;100.00;101661.25;6271499;28;20049;-75
2021/10/17 04:38:41;;;;;;;3.97;1.60;;;;;;;7.97;100.00;101663.91;6271089;28;20045;-75
2021/10/17 04:41:42;;;;;;;2.30;1.25;;;;;;;7.96;100.00;101660.44;6271600;28;20051;-75
2021/10/17 04:44:44;;;;;;;1.42;1.15;;;;;;;7.98;100.00;101660.38;6271193;28;20052;-75
2021/10/17 04:47:45;;;;;;;4.03;1.20;;;;;;;7.97;100.00;101659.53;6271617;28;20041;-75
2021/10/17 04:50:46;;;;;;;3.78;1.20;;;;;;;7.97;100.00;101664.78;6271371;28;20072;-74
2021/10/17 04:53:49;;;;;;;4.32;1.35;;;;;;;7.98;100.00;101660.38;6271493;28;20049;-75
2021/10/17 04:56:50;;;;;;;2.80;1.38;;;;;;;7.95;100.00;101669.22;6271360;28;20048;-74
2021/10/17 04:59:52;;;;;;;1.92;1.25;;;;;;;7.96;100.00;101664.81;6270982;28;20056;-75
2021/10/17 05:02:53;;;;;;;6.93;1.92;;;;;;;7.98;100.00;101668.25;6271166;28;20049;-75
2021/10/17 05:05:55;;;;;;;2.40;1.02;;;;;;;7.95;100.00;101666.59;6270750;28;20052;-73
2021/10/17 05:08:57;;;;;;;5.68;1.55;;;;;;;7.93;100.00;101670.13;6271332;28;20049;-75
2021/10/17 05:11:59;;;;;;;2.30;1.30;;;;;;;7.95;100.00;101668.31;6270859;28;20056;-75
2021/10/17 05:15:00;;;;;;;3.22;1.55;;;;;;;7.95;100.00;101663.09;6270965;28;20049;-75
2021/10/17 05:18:02;;;;;;;5.30;1.40;;;;;;;7.96;100.00;101665.69;6271218;28;20040;-75
2021/10/17 05:21:03;;;;;;;4.30;1.60;;;;;;;7.96;100.00;101664.81;6271070;28;20059;-75
2021/10/17 05:24:06;;;;;;;5.10;1.83;;;;;;;7.98;100.00;101670.88;6270728;28;20053;-75
2021/10/17 05:27:07;;;;;;;3.70;1.67;;;;;;;7.97;100.00;101674.38;6271397;28;20234;-74
2021/10/17 05:30:10;;;;;;;4.05;1.77;;;;;;;7.97;100.00;101675.25;6270906;28;20052;-75
2021/10/17 05:33:11;;;;;;;3.63;1.75;;;;;;;7.96;100.00;101664.81;6270736;28;20057;-75
2021/10/17 05:36:13;;;;;;;6.40;1.92;;;;;;;7.97;100.00;101662.16;6270763;28;20408;-75
2021/10/17 05:39:15;;;;;;;6.20;1.58;;;;;;;7.95;100.00;101656.13;6270767;28;20412;-75
2021/10/17 05:42:17;;;;;;;6.82;1.58;;;;;;;7.94;100.00;101661.38;6270770;28;20492;-75
2021/10/17 05:45:18;;;;;;;4.80;1.02;;;;;;;7.93;100.00;101655.28;6270465;28;20049;-74
2021/10/17 05:48:19;;;;;;;3.00;1.30;;;;;;;7.96;100.00;101667.44;6271844;28;20049;-76
2021/10/17 05:51:21;;;;;;;5.15;2.15;;;;;;;7.96;99.87;101673.53;6274130;28;20056;-75
2021/10/17 05:54:23;;;;;;;2.88;1.83;;;;;;;7.95;100.00;101679.69;6275082;28;20052;-75
2021/10/17 05:57:25;;;;;;;1.60;1.30;;;;;;;7.93;99.88;101683.22;6299104;28;20048;-75
2021/10/17 06:00:26;;;;;;;2.30;1.35;;;;;;;7.93;100.00;101681.47;6299872;28;20041;-76
2021/10/17 06:03:28;;;;;;;3.95;1.65;;;;;;;7.91;100.00;101680.66;6299605;28;20059;-75
2021/10/17 06:06:29;;;;;;;1.70;1.40;;;;;;;7.94;100.00;101682.31;6299562;28;20056;-75
2021/10/17 06:09:35;;;;;;;5.93;2.20;;;;;;;7.95;100.00;101689.25;6299606;28;20041;-75
2021/10/17 06:12:38;;;;;;;3.75;2.30;;;;;;;7.95;100.00;101684.03;6299500;28;20060;-75
2021/10/17 06:15:39;;;;;;;3.63;1.95;;;;;;;7.94;100.00;101692.78;6299358;28;20471;-75
2021/10/17 06:18:40;;;;;;;3.22;2.45;;;;;;;7.94;100.00;101692.78;6297627;28;20044;-75
2021/10/17 06:21:42;;;;;;;5.15;1.73;;;;;;;7.98;100.00;101700.50;6296823;28;20431;-75
2021/10/17 06:24:44;;;;;;;5.28;2.08;;;;;;;7.99;100.00;101691.75;6299320;28;20495;-75
2021/10/17 06:27:46;;;;;;;5.93;2.03;;;;;;;7.99;99.81;101698.75;6299321;28;20052;-74
2021/10/17 06:30:47;;;;;;;8.23;2.08;;;;;;;8.00;99.94;101705.72;6298932;28;20045;-75
2021/10/17 06:33:48;;;;;;;3.38;2.40;;;;;;;8.01;99.86;101708.28;6299119;28;20526;-75
2021/10/17 06:36:50;;;;;;;4.22;1.95;;;;;;;7.98;99.84;101708.38;6299107;28;20051;-75
2021/10/17 06:39:52;;;;;;;5.05;2.42;;;;;;;8.00;100.00;101711.81;6298692;28;20044;-74
2021/10/17 06:42:54;;;;;;;6.10;2.75;;;;;;;8.01;99.67;101710.06;6298746;28;20495;-75
2021/10/17 06:45:55;;;;;;;5.00;2.40;;;;;;;8.04;100.00;101707.31;6298565;28;20044;-75
2021/10/17 06:48:56;;;;;;;2.60;2.08;;;;;;;8.06;100.00;101710.78;6297088;28;20060;-74
2021/10/17 06:51:57;;;;;;;4.32;1.98;;;;;;;8.10;100.00;101713.28;6298322;28;20083;-75
2021/10/17 06:55:00;;;;;;;4.18;2.20;;;;;;;8.11;100.00;101708.88;6298411;28;20052;-74
2021/10/17 06:58:01;;;;;;;3.42;1.75;;;;;;;8.14;100.00;101716.66;6298186;28;20071;-75
2021/10/17 07:01:03;;;;;;;5.30;2.25;;;;;;;8.16;100.00;101720.09;6298279;28;20499;-74
2021/10/17 07:04:05;;;;;;;6.03;2.22;;;;;;;8.13;100.00;101721.06;6297160;28;20048;-75
2021/10/17 07:07:06;;;;;;;4.80;2.50;;;;;;;8.17;100.00;101721.81;6272747;28;20191;-75
2021/10/17 07:10:09;;;;;;;8.57;2.63;;;;;;;8.17;100.00;101727.03;6273635;28;20041;-75
2021/10/17 07:13:11;;;;;;;8.43;2.25;;;;;;;8.19;100.00;101729.63;6273199;28;20049;-75
2021/10/17 07:16:13;;;;;;;4.45;2.20;;;;;;;8.20;100.00;101726.97;6273086;28;20049;-75
2021/10/17 07:19:14;;;;;;;4.70;2.55;;;;;;;8.21;100.00;101725.19;6281950;28;20102;-75
2021/10/17 07:22:16;;;;;;;9.05;2.83;;;;;;;8.20;100.00;101726.09;6297954;28;20491;-75
2021/10/17 07:25:18;;;;;;;12.65;2.40;;;;;;;8.21;100.00;101728.66;6297514;28;20048;-75
2021/10/17 07:28:20;;;;;;;8.48;2.08;;;;;;;8.21;100.00;101720.81;6280712;28;20049;-75
2021/10/17 07:31:21;;;;;;;8.52;2.28;;;;;;;8.24;100.00;101720.75;6271754;28;20059;-75
2021/10/17 07:34:22;;;;;;;5.15;1.85;;;;;;;8.25;100.00;101721.59;6271745;28;20048;-75
2021/10/17 07:37:24;;;;;;;4.53;2.20;;;;;;;8.24;100.00;101720.75;6272632;28;20053;-75
2021/10/17 07:40:26;;;;;;;5.28;3.13;;;;;;;8.26;100.00;101713.69;6272398;28;20041;-75
2021/10/17 07:43:28;;;;;;;6.15;2.25;;;;;;;8.27;100.00;101722.44;6270905;28;20056;-75
2021/10/17 07:46:30;;;;;;;5.22;2.83;;;;;;;8.28;100.00;101721.53;6270602;28;20051;-75
2021/10/17 07:49:32;;;;;;;5.90;2.10;;;;;;;8.30;100.00;101730.19;6300548;22;20488;-74
2021/10/17 07:52:33;;;;;;;3.55;2.15;;;;;;;8.33;100.00;101737.97;6268443;28;20048;-73
2021/10/17 07:55:36;;;;;;;8.10;2.10;;;;;;;8.36;100.00;101738.78;6269557;28;20049;-73
2021/10/17 07:58:37;;;;;;;4.35;1.80;;;;;;;8.41;100.00;101733.41;6259972;28;20049;-73
2021/10/17 08:01:38;;;;;;;6.47;2.60;;;;;;;8.50;100.00;101734.91;6270240;28;20052;-74
2021/10/17 08:04:40;;;;;;;7.15;1.65;;;;;;;8.53;99.77;101732.19;6269354;28;20059;-74
2021/10/17 08:07:42;;;;;;;2.97;1.90;;;;;;;8.59;100.00;101735.50;6271937;28;20045;-74
2021/10/17 08:10:45;;;;;;;3.13;2.00;;;;;;;8.73;100.00;101749.97;6271827;28;20076;-73
2021/10/17 08:13:46;;;;;;;6.93;2.50;;;;;;;8.79;99.33;101739.28;6270590;28;20056;-74
2021/10/17 08:16:47;;;;;;;4.32;2.20;;;;;;;8.82;97.64;101744.44;6271813;28;20057;-73
2021/10/17 08:19:49;;;;;;;2.28;1.60;;;;;;;8.84;97.77;101748.72;6277986;28;20047;-73
2021/10/17 08:22:50;;;;;;;4.88;2.10;;;;;;;8.91;97.38;101751.16;6296589;28;20056;-73
2021/10/17 08:25:53;;;;;;;4.20;2.35;;;;;;;8.91;97.65;101748.53;6295947;28;20415;-74
2021/10/17 08:28:54;;;;;;;7.40;2.70;;;;;;;8.92;97.44;101747.63;6296553;28;20045;-74
2021/10/17 08:31:55;;;;;;;6.13;2.50;;;;;;;8.94;97.65;101748.44;6276619;28;20049;-74
2021/10/17 08:34:57;;;;;;;6.88;2.28;;;;;;;9.00;98.07;101748.25;6270946;28;20062;-74
2021/10/17 08:37:58;;;;;;;6.93;2.78;;;;;;;9.06;97.47;101751.53;6271854;28;20053;-73
2021/10/17 08:41:01;;;;;;;4.88;2.00;;;;;;;9.11;97.89;101752.25;6271484;28;20431;-74
2021/10/17 08:44:03;;;;;;;8.85;2.47;;;;;;;9.15;96.81;101748.63;6270811;28;20507;-74
2021/10/17 08:47:04;;;;;;;5.35;2.53;;;;;;;9.17;96.90;101760.84;6271633;28;20143;-74
2021/10/17 08:50:08;;;;;;;5.88;2.42;;;;;;;9.20;98.23;101766.00;6274715;28;20037;-73
2021/10/17 08:53:09;;;;;;;9.65;2.75;;;;;;;9.21;97.51;101771.19;6281338;28;20048;-74
2021/10/17 08:56:14;;;;;;;7.18;2.55;;;;;;;9.24;95.90;101768.47;6270654;28;20053;-74
2021/10/17 08:59:15;;;;;;;9.32;2.60;;;;;;;9.34;96.23;101762.03;6271920;28;20094;-74
2021/10/17 09:02:19;;;;;;;5.40;2.83;;;;;;;9.43;97.44;101758.25;6271163;28;20055;-73
2021/10/17 09:05:32;;;;;;;4.28;2.35;;;;;;;9.51;97.45;101764.09;6270324;28;20540;-74
2021/10/17 09:08:33;;;;;;;3.83;2.50;;;;;;;9.53;95.04;101759.66;6271332;28;20064;-74
2021/10/17 09:11:38;;;;;;;9.23;2.30;;;;;;;9.50;95.11;101765.03;6270887;28;20049;-73
2021/10/17 09:14:39;;;;;;;4.97;2.60;;;;;;;9.54;95.66;101764.03;6270410;28;20045;-74
2021/10/17 09:17:40;;;;;;;7.53;2.72;;;;;;;9.66;93.75;101760.13;6270901;28;20084;-74
2021/10/17 09:21:00;;;;;;;5.63;2.65;;;;;;;9.72;93.30;101761.66;6275334;28;20036;-75
2021/10/17 09:24:02;;;;;;;4.35;2.22;;;;;;;9.77;93.45;101762.41;6294943;28;20053;-74
2021/10/17 09:27:06;;;;;;;8.73;2.58;;;;;;;9.77;89.91;101762.41;6300669;28;20423;-74
2021/10/17 09:30:08;;;;;;;3.40;2.00;;;;;;;9.77;90.89;101762.41;6299971;28;20052;-75
2021/10/17 09:33:10;;;;;;;7.65;2.90;;;;;;;9.78;90.67;101762.34;6300642;28;20044;-74
2021/10/17 09:36:21;;;;;;;5.72;2.40;;;;;;;9.84;92.74;101751.63;6299489;28;20133;-75
2021/10/17 09:39:32;;;;;;;7.50;3.28;;;;;;;9.88;91.23;101755.88;6300090;28;20076;-75
2021/10/17 09:42:40;;;;;;;5.57;3.08;;;;;;;9.95;93.22;101764.41;6300310;28;20049;-74
2021/10/17 09:45:42;;;;;;;6.13;3.00;;;;;;;9.90;90.22;101759.31;6299670;28;20170;-73
2021/10/17 09:48:44;;;;;;;5.82;2.78;;;;;;;9.93;90.23;101762.72;6300283;28;20049;-73
2021/10/17 09:51:45;;;;;;;7.30;2.92;;;;;;;10.00;91.09;101769.50;6290018;28;20053;-73
2021/10/17 09:54:48;;;;;;;7.18;2.38;;;;;;;10.02;89.42;101767.66;6274418;28;20056;-74
2021/10/17 09:57:52;;;;;;;5.63;2.42;;;;;;;10.03;90.62;101764.13;6275318;28;20045;-74
2021/10/17 10:00:53;;;;;;;9.15;3.53;;;;;;;10.01;89.01;101765.94;6274718;28;20128;-74
2021/10/17 10:03:56;;;;;;;4.18;2.70;;;;;;;10.04;90.38;101771.09;6274274;28;20053;-73
2021/10/17 10:06:59;;;;;;;10.75;2.78;;;;;;;10.05;90.26;101775.44;6274830;28;20567;-73
2021/10/17 10:10:02;;;;;;;9.63;2.60;;;;;;;10.09;89.95;101766.56;6275125;28;20049;-74
2021/10/17 10:13:05;;;;;;;4.78;2.22;;;;;;;10.09;88.67;101764.78;6274650;28;20164;-73
2021/10/17 10:16:07;;;;;;;7.00;2.70;;;;;;;10.12;89.46;101764.66;6271950;28;20041;-72
2021/10/17 10:19:12;;;;;;;3.63;2.38;;;;;;;10.19;89.60;101762.69;6274509;28;20041;-73
2021/10/17 10:22:15;;;;;;;5.85;2.60;;;;;;;10.27;90.81;101762.44;6293127;28;20505;-73
2021/10/17 10:25:17;;;;;;;7.90;2.75;;;;;;;10.33;89.03;101770.09;6274102;28;20048;-73
2021/10/17 10:28:25;;;;;;;6.57;2.83;;;;;;;10.31;88.47;101764.03;6274136;28;20045;-73
2021/10/17 10:31:44;;;;;;;12.02;3.53;;;;;;;10.36;88.86;101767.38;6274501;28;20080;-73
2021/10/17 10:34:55;;;;;;;7.43;2.97;;;;;;;10.48;88.46;101773.94;6271369;28;20045;-73
2021/10/17 10:37:57;;;;;;;5.72;2.63;;;;;;;10.37;89.75;101774.34;6274135;28;20091;-72
2021/10/17 10:41:16;;;;;;;13.02;2.65;;;;;;;10.36;89.53;101767.38;6274049;28;20045;-72
2021/10/17 10:44:20;;;;;;;4.65;2.65;;;;;;;10.45;90.56;101774.94;6273779;28;20049;-71
2021/10/17 10:47:25;;;;;;;3.63;2.17;;;;;;;10.51;91.05;101772.06;6273723;28;20107;-72
2021/10/17 10:50:34;;;;;;;4.40;2.50;;;;;;;10.58;90.03;101777.94;6274561;28;20051;-72
2021/10/17 10:53:51;;;;;;;5.97;3.30;;;;;;;10.71;91.37;101780.97;6273512;28;20131;-71
2021/10/17 10:56:53;;;;;;;7.38;2.97;;;;;;;10.72;90.67;101785.31;6249171;28;20045;-72
2021/10/17 11:00:02;;;;;;;7.25;2.97;;;;;;;10.74;88.29;101775.63;6251457;28;20049;-73
2021/10/17 11:03:12;;;;;;;4.03;2.47;;;;;;;10.82;88.70;101770.94;6265874;28;20128;-73
2021/10/17 11:06:17;;;;;;;3.95;2.40;;;;;;;10.80;88.43;101772.75;6273565;28;20079;-73
2021/10/17 11:09:23;;;;;;;8.10;2.33;;;;;;;10.82;90.25;101766.53;6273420;28;20053;-73
2021/10/17 11:12:44;;;;;;;6.00;2.85;;;;;;;10.75;88.10;101767.66;6273320;28;20049;-73
2021/10/17 11:15:47;;;;;;;9.85;3.08;;;;;;;10.74;88.85;101773.84;6273209;28;20053;-73
2021/10/17 11:18:57;;;;;;;5.43;2.70;;;;;;;10.75;88.56;101770.28;6273045;28;20049;-73
2021/10/17 11:22:01;;;;;;;7.25;3.40;;;;;;;10.79;89.36;101771.88;6293161;28;20067;-73
2021/10/17 11:25:04;;;;;;;6.30;2.92;;;;;;;10.83;89.70;101770.84;6297471;28;20059;-73
2021/10/17 11:28:10;;;;;;;5.53;3.05;;;;;;;10.84;89.19;101772.56;6297864;28;20059;-73
2021/10/17 11:31:15;;;;;;;8.23;2.67;;;;;;;10.90;88.14;101779.34;6297481;28;20526;-72
2021/10/17 11:34:24;;;;;;;8.13;2.92;;;;;;;10.83;88.34;101770.84;6291020;28;20080;-73
2021/10/17 11:37:28;;;;;;;5.47;2.78;;;;;;;10.85;88.38;101771.66;6267994;28;20048;-73
2021/10/17 11:40:31;;;;;;;3.70;2.40;;;;;;;10.84;89.40;101763.81;6273126;28;20045;-73
2021/10/17 11:43:38;;;;;;;4.32;2.63;;;;;;;10.86;89.52;101765.50;6272435;28;20053;-73
2021/10/17 11:46:42;;;;;;;6.15;2.70;;;;;;;10.88;90.21;101770.69;6272131;28;20060;-73
2021/10/17 11:49:43;;;;;;;6.15;2.83;;;;;;;10.91;90.30;101757.44;6272026;28;20400;-73
2021/10/17 11:52:49;;;;;;;6.15;2.83;;;;;;;10.92;90.70;101761.75;6295378;28;20045;-73
2021/10/17 11:55:52;;;;;;;3.72;2.28;;;;;;;10.97;91.75;101764.22;6296780;28;20044;-74
2021/10/17 11:58:54;;;;;;;9.93;3.08;;;;;;;10.97;91.45;101753.69;6297092;28;20131;-73
2021/10/17 12:01:56;;;;;;;7.00;3.53;;;;;;;10.98;90.44;101747.50;6296677;28;20048;-73
2021/10/17 12:04:58;;;;;;;6.95;2.40;;;;;;;11.02;90.99;101747.34;6296747;28;20041;-73
2021/10/17 12:07:59;;;;;;;9.07;2.60;;;;;;;11.03;92.43;101742.94;6296938;28;20051;-73
2021/10/17 12:11:03;;;;;;;4.55;2.22;;;;;;;11.05;93.07;101744.59;6296599;28;20419;-73
2021/10/17 12:14:06;;;;;;;8.30;2.78;;;;;;;11.08;91.65;101748.84;6296531;28;20056;-73
2021/10/17 12:17:09;;;;;;;4.40;2.22;;;;;;;11.08;90.83;101746.22;6296674;28;20133;-73
2021/10/17 12:20:13;;;;;;;10.05;2.17;;;;;;;11.11;92.12;101743.50;6296531;28;20051;-73
2021/10/17 12:23:21;;;;;;;3.95;1.98;;;;;;;11.09;91.24;101748.81;6295638;28;20049;-73
2021/10/17 12:26:24;;;;;;;5.57;2.03;;;;;;;11.10;90.35;101749.66;6296781;28;20056;-75
2021/10/17 12:29:30;;;;;;;3.88;1.85;;;;;;;11.09;89.97;101746.19;6296078;28;20052;-73
2021/10/17 12:32:43;;;;;;;9.20;2.47;;;;;;;11.12;89.89;101734.66;6296658;28;20062;-74
2021/10/17 12:35:48;;;;;;;5.18;2.05;;;;;;;11.11;88.70;101732.97;6295365;28;20045;-75
2021/10/17 12:38:59;;;;;;;2.30;1.40;;;;;;;11.18;89.46;101737.94;6296012;28;20131;-75
2021/10/17 12:42:01;;;;;;;2.97;1.40;;;;;;;11.16;86.25;101729.22;6296120;28;20500;-75
2021/10/17 12:45:11;;;;;;;1.77;1.27;;;;;;;11.20;86.66;101724.72;6296376;28;20665;-73
2021/10/17 12:48:15;;;;;;;2.85;1.67;;;;;;;11.23;86.94;101723.75;6296285;28;20139;-75
2021/10/17 12:51:31;;;;;;;3.50;1.40;;;;;;;11.29;86.84;101724.34;6295973;28;20052;-75
2021/10/17 12:54:33;;;;;;;4.10;1.65;;;;;;;11.34;86.83;101722.38;6295901;28;20060;-74
2021/10/17 12:57:34;;;;;;;8.32;1.60;;;;;;;11.44;85.89;101722.84;6283022;28;20115;-75
2021/10/17 13:00:36;;;;;;;2.15;1.48;;;;;;;11.48;84.77;101713.91;6272889;28;20403;-74
2021/10/17 13:03:38;;;;;;;5.25;1.70;;;;;;;11.63;85.09;101713.28;6276000;28;20401;-74
2021/10/17 13:06:50;;;;;;;2.08;1.65;;;;;;;11.65;83.15;101719.31;6275996;28;20045;-75
2021/10/17 13:09:54;;;;;;;1.63;1.40;;;;;;;11.66;82.71;101709.63;6276131;28;20044;-75
2021/10/17 13:12:55;;;;;;;4.07;1.88;;;;;;;11.72;83.87;101712.03;6275983;28;20044;-76
2021/10/17 13:15:56;;;;;;;5.63;2.28;;;;;;;11.77;83.32;101717.09;6276631;28;20396;-75
2021/10/17 13:18:59;;;;;;;1.85;1.42;;;;;;;11.76;83.42;101721.50;6275824;28;20056;-76
2021/10/17 13:22:02;;;;;;;3.92;1.67;;;;;;;11.78;84.33;101722.28;6281136;28;20407;-75
2021/10/17 13:25:04;;;;;;;2.67;1.70;;;;;;;11.75;84.78;101721.56;6300690;28;20060;-75
2021/10/17 13:28:06;;;;;;;2.55;1.45;;;;;;;11.76;84.13;101716.22;6279110;28;20049;-75
2021/10/17 13:31:07;;;;;;;4.00;1.52;;;;;;;11.67;83.84;101714.88;6275680;28;20041;-76
2021/10/17 13:34:10;;;;;;;4.65;1.85;;;;;;;11.71;85.64;101718.19;6275281;28;20412;-76
2021/10/17 13:37:11;;;;;;;7.32;1.73;;;;;;;11.68;83.45;101724.47;6275597;28;20052;-76
2021/10/17 13:40:17;;;;;;;3.05;1.60;;;;;;;11.66;82.60;101725.44;6275329;28;20045;-76
2021/10/17 13:43:18;;;;;;;3.40;1.35;;;;;;;11.66;81.40;101723.66;6275625;28;20143;-75
2021/10/17 13:46:20;;;;;;;4.90;1.60;;;;;;;11.57;80.82;101718.78;6275103;28;20049;-76
2021/10/17 13:49:22;;;;;;;4.32;1.58;;;;;;;11.53;80.06;101718.97;6275373;28;20048;-75
2021/10/17 13:52:24;;;;;;;2.03;1.42;;;;;;;11.50;81.37;101725.25;6288694;22;20049;-80
2021/10/17 13:55:25;;;;;;;2.38;1.30;;;;;;;11.43;81.56;101726.41;6270906;28;20053;-80
2021/10/17 13:58:26;;;;;;;2.88;1.40;;;;;;;11.40;81.53;101721.28;6289113;28;20060;-80
2021/10/17 14:01:28;;;;;;;4.05;1.98;;;;;;;11.38;81.22;101720.47;6269113;28;20053;-80
2021/10/17 14:04:31;;;;;;;4.05;1.58;;;;;;;11.44;82.82;101722.84;6262866;28;20049;-80
2021/10/17 14:07:32;;;;;;;4.68;1.67;;;;;;;11.32;81.41;101726.84;6263889;28;20054;-80
2021/10/17 14:10:35;;;;;;;4.50;2.22;;;;;;;11.32;82.37;101736.53;6262712;28;20049;-79
2021/10/17 14:13:36;;;;;;;4.20;1.52;;;;;;;11.30;83.29;101741.81;6262383;28;20452;-79